createdAt,value
2022-09-16T00:00:57.393Z,14.04
2022-09-16T00:03:24.657Z,13.93
2022-09-16T00:05:53.457Z,13.78
2022-09-16T00:08:22.735Z,14.02
2022-09-16T00:10:50.534Z,13.96
2022-09-16T00:13:18.750Z,14.03
2022-09-16T00:15:50.686Z,14.06
2022-09-16T00:18:18.263Z,14.07
2022-09-16T00:20:52.182Z,14.04
2022-09-16T00:23:20.015Z,14.02
2022-09-16T00:25:55.135Z,14.01
2022-09-16T00:28:23.234Z,14.03
2022-09-16T00:30:50.999Z,13.98
2022-09-16T00:33:19.745Z,13.93
2022-09-16T00:35:47.716Z,13.86
2022-09-16T00:38:15.134Z,13.76
2022-09-16T00:40:48.311Z,13.76
2022-09-16T00:43:19.422Z,13.73
2022-09-16T00:45:57.078Z,13.71
2022-09-16T00:48:29.873Z,13.62
2022-09-16T00:51:05.249Z,13.63
2022-09-16T00:53:42.997Z,13.62
2022-09-16T00:56:17.254Z,13.69
2022-09-16T00:59:11.088Z,13.74
2022-09-16T01:01:39.701Z,13.80
2022-09-16T01:04:32.654Z,13.84
2022-09-16T01:07:00.596Z,13.53
2022-09-16T01:09:30.259Z,13.88
2022-09-16T01:11:57.353Z,13.82
2022-09-16T01:14:46.231Z,13.77
2022-09-16T01:17:45.726Z,13.80
2022-09-16T01:21:01.567Z,13.78
2022-09-16T01:23:49.709Z,13.79
2022-09-16T01:26:51.008Z,13.80
2022-09-16T01:29:55.886Z,13.77
2022-09-16T01:32:46.464Z,13.79
2022-09-16T01:35:45.851Z,13.65
2022-09-16T01:38:31.351Z,13.68
2022-09-16T01:41:13.770Z,13.59
2022-09-16T01:44:01.249Z,13.59
2022-09-16T01:46:41.341Z,13.53
2022-09-16T01:49:58.732Z,13.57
2022-09-16T01:52:55.851Z,13.45
2022-09-16T01:56:06.127Z,13.50
2022-09-16T01:58:53.872Z,13.52
2022-09-16T02:01:36.721Z,13.56
2022-09-16T02:04:16.335Z,13.63
2022-09-16T02:06:49.253Z,13.57
2022-09-16T02:09:41.586Z,13.61
2022-09-16T02:12:18.324Z,13.49
2022-09-16T02:14:49.088Z,13.60
2022-09-16T02:17:22.291Z,13.67
2022-09-16T02:19:57.391Z,13.60
2022-09-16T02:22:44.946Z,13.72
2022-09-16T02:25:15.842Z,13.73
2022-09-16T02:27:46.945Z,13.73
2022-09-16T02:30:21.760Z,13.40
2022-09-16T02:33:02.580Z,13.74
2022-09-16T02:35:34.200Z,13.69
2022-09-16T02:38:14.149Z,13.65
2022-09-16T02:40:54.389Z,13.63
2022-09-16T02:43:21.887Z,13.73
2022-09-16T02:46:20.032Z,13.76
2022-09-16T02:49:17.218Z,13.71
2022-09-16T02:52:43.244Z,13.65
2022-09-16T02:55:45.927Z,13.60
2022-09-16T02:58:13.045Z,13.54
2022-09-16T03:00:49.802Z,13.56
2022-09-16T03:03:17.694Z,13.61
2022-09-16T03:06:06.478Z,13.65
2022-09-16T03:08:35.841Z,13.65
2022-09-16T03:11:30.479Z,13.60
2022-09-16T03:14:07.351Z,13.59
2022-09-16T03:16:59.783Z,13.67
2022-09-16T03:19:59.011Z,13.68
2022-09-16T03:22:41.270Z,13.75
2022-09-16T03:25:41.819Z,13.70
2022-09-16T03:28:44.703Z,13.72
2022-09-16T03:31:40.480Z,13.56
2022-09-16T03:34:20.073Z,13.56
2022-09-16T03:37:00.335Z,13.57
2022-09-16T03:39:27.709Z,13.59
2022-09-16T03:42:00.012Z,13.50
2022-09-16T03:44:40.225Z,13.65
2022-09-16T03:47:08.439Z,13.46
2022-09-16T03:49:36.265Z,13.62
2022-09-16T03:52:08.458Z,13.58
2022-09-16T03:54:37.238Z,13.62
2022-09-16T03:57:05.709Z,13.56
2022-09-16T03:59:32.960Z,13.57
2022-09-16T04:02:00.266Z,13.53
2022-09-16T04:04:27.628Z,13.53
2022-09-16T04:06:54.612Z,13.53
2022-09-16T04:09:21.692Z,13.61
2022-09-16T04:11:48.704Z,13.51
2022-09-16T04:14:16.214Z,13.50
2022-09-16T04:16:45.389Z,13.53
2022-09-16T04:19:14.470Z,13.55
2022-09-16T04:21:42.918Z,13.49
2022-09-16T04:24:13.203Z,13.45
2022-09-16T04:26:41.903Z,13.46
2022-09-16T04:29:09.364Z,13.43
2022-09-16T04:31:36.477Z,13.45
2022-09-16T04:34:05.001Z,13.44
2022-09-16T04:36:32.677Z,13.43
2022-09-16T04:38:59.898Z,13.46
2022-09-16T04:41:27.464Z,13.45
2022-09-16T04:43:58.305Z,13.51
2022-09-16T04:46:28.592Z,13.35
2022-09-16T04:48:57.259Z,13.48
2022-09-16T04:51:27.314Z,13.45
2022-09-16T04:53:59.160Z,13.47
2022-09-16T04:56:31.320Z,13.42
2022-09-16T04:59:05.050Z,13.41
2022-09-16T05:01:35.734Z,13.44
2022-09-16T05:04:05.204Z,13.16
2022-09-16T05:06:36.914Z,13.50
2022-09-16T05:09:04.790Z,13.56
2022-09-16T05:11:37.102Z,13.46
2022-09-16T05:14:08.422Z,13.49
2022-09-16T05:16:35.661Z,13.51
2022-09-16T05:19:04.986Z,13.50
2022-09-16T05:21:36.149Z,13.51
2022-09-16T05:24:10.073Z,13.61
2022-09-16T05:26:42.008Z,13.44
2022-09-16T05:29:15.518Z,13.44
2022-09-16T05:31:47.193Z,13.56
2022-09-16T05:34:18.617Z,13.49
2022-09-16T05:36:48.289Z,13.49
2022-09-16T05:39:23.615Z,13.57
2022-09-16T05:41:59.342Z,13.52
2022-09-16T05:44:28.780Z,13.60
2022-09-16T05:46:56.309Z,13.57
2022-09-16T05:49:23.907Z,13.59
2022-09-16T05:51:52.015Z,13.57
2022-09-16T05:54:19.887Z,13.64
2022-09-16T05:56:47.996Z,13.58
2022-09-16T05:59:16.921Z,13.60
2022-09-16T06:01:45.207Z,13.74
2022-09-16T06:04:15.297Z,13.79
2022-09-16T06:06:47.327Z,13.77
2022-09-16T06:09:21.280Z,13.76
2022-09-16T06:11:53.174Z,13.75
2022-09-16T06:14:23.079Z,13.75
2022-09-16T06:16:50.265Z,13.77
2022-09-16T06:19:20.427Z,13.74
2022-09-16T06:21:47.504Z,13.83
2022-09-16T06:24:17.011Z,13.91
2022-09-16T06:26:45.837Z,13.98
2022-09-16T06:29:14.229Z,13.93
2022-09-16T06:31:42.027Z,13.93
2022-09-16T06:34:18.460Z,13.79
2022-09-16T06:36:47.112Z,13.85
2022-09-16T06:39:17.176Z,13.99
2022-09-16T06:41:44.685Z,13.89
2022-09-16T06:44:11.754Z,13.61
2022-09-16T06:46:38.928Z,14.00
2022-09-16T06:49:06.747Z,13.96
2022-09-16T06:51:34.849Z,14.07
2022-09-16T06:54:06.670Z,13.64
2022-09-16T06:56:37.487Z,13.96
2022-09-16T06:59:05.247Z,14.00
2022-09-16T07:01:33.878Z,13.85
2022-09-16T07:04:10.361Z,13.96
2022-09-16T07:07:07.635Z,13.99
2022-09-16T07:09:24.961Z,14.06
2022-09-16T07:11:51.946Z,14.01
2022-09-16T07:14:18.970Z,14.13
2022-09-16T07:16:45.961Z,13.98
2022-09-16T07:19:12.969Z,14.35
2022-09-16T07:21:41.538Z,14.16
2022-09-16T07:24:13.199Z,14.37
2022-09-16T07:26:42.295Z,14.45
2022-09-16T07:29:15.152Z,14.66
2022-09-16T07:31:42.482Z,14.63
2022-09-16T07:34:12.546Z,14.46
2022-09-16T07:36:49.022Z,14.37
2022-09-16T07:39:19.147Z,14.63
2022-09-16T07:41:48.446Z,14.75
2022-09-16T07:44:18.869Z,14.83
2022-09-16T07:46:46.336Z,14.60
2022-09-16T07:49:15.215Z,14.47
2022-09-16T07:51:43.381Z,14.50
2022-09-16T07:54:15.461Z,14.45
2022-09-16T07:56:44.556Z,14.72
2022-09-16T07:59:19.321Z,14.74
2022-09-16T08:01:50.848Z,14.77
2022-09-16T08:04:20.270Z,14.96
2022-09-16T08:06:48.232Z,14.71
2022-09-16T08:12:05.138Z,14.80
2022-09-16T08:14:33.286Z,14.85
2022-09-16T08:17:00.945Z,14.63
2022-09-16T08:19:27.908Z,14.56
2022-09-16T08:21:54.841Z,14.75
2022-09-16T08:24:21.982Z,14.55
2022-09-16T08:26:49.041Z,14.99
2022-09-16T08:29:16.677Z,15.09
2022-09-16T08:31:44.097Z,15.26
2022-09-16T08:34:11.124Z,15.19
2022-09-16T08:36:38.114Z,15.23
2022-09-16T08:39:05.241Z,15.44
2022-09-16T08:42:05.551Z,15.17
2022-09-16T08:45:05.651Z,15.54
2022-09-16T08:47:42.637Z,15.85
2022-09-16T08:50:25.984Z,15.43
2022-09-16T08:52:57.676Z,15.29
2022-09-16T08:55:40.870Z,15.23
2022-09-16T08:58:27.625Z,15.34
2022-09-16T09:01:05.122Z,15.44
2022-09-16T09:03:46.026Z,15.61
2022-09-16T09:06:59.604Z,15.74
2022-09-16T09:09:49.200Z,15.71
2022-09-16T09:12:49.380Z,15.34
2022-09-16T09:15:54.689Z,15.26
2022-09-16T09:18:44.057Z,15.02
2022-09-16T09:21:50.106Z,15.04
2022-09-16T09:24:28.807Z,15.20
2022-09-16T09:27:14.414Z,15.28
2022-09-16T09:29:53.231Z,15.22
2022-09-16T09:32:50.211Z,15.18
2022-09-16T09:36:05.457Z,15.62
2022-09-16T09:38:58.716Z,15.72
2022-09-16T09:41:36.691Z,15.81
2022-09-16T09:44:35.354Z,15.61
2022-09-16T09:47:12.600Z,15.53
2022-09-16T09:49:50.551Z,15.28
2022-09-16T09:52:28.048Z,15.40
2022-09-16T09:55:00.890Z,15.78
2022-09-16T09:57:38.266Z,16.07
2022-09-16T10:00:22.090Z,16.04
2022-09-16T10:02:50.191Z,16.11
2022-09-16T10:05:28.607Z,16.28
2022-09-16T10:08:02.613Z,16.46
2022-09-16T10:10:34.850Z,16.67
2022-09-16T10:13:13.229Z,16.40
2022-09-16T10:15:41.375Z,16.39
2022-09-16T10:18:32.341Z,17.05
2022-09-16T10:21:12.838Z,17.02
2022-09-16T10:23:40.376Z,16.30
2022-09-16T10:26:20.099Z,16.58
2022-09-16T10:28:58.439Z,16.64
2022-09-16T10:31:37.662Z,17.27
2022-09-16T10:34:21.926Z,16.88
2022-09-16T10:37:06.055Z,16.42
2022-09-16T10:39:34.182Z,16.06
2022-09-16T10:42:04.298Z,15.61
2022-09-16T10:44:36.536Z,15.07
2022-09-16T10:47:25.422Z,14.49
2022-09-16T10:50:02.083Z,14.39
2022-09-16T10:52:32.472Z,14.11
2022-09-16T10:55:20.427Z,14.09
2022-09-16T10:57:48.050Z,14.42
2022-09-16T11:00:24.366Z,15.50
2022-09-16T11:03:25.297Z,15.63
2022-09-16T11:06:27.579Z,15.95
2022-09-16T11:09:31.420Z,17.07
2022-09-16T11:12:44.237Z,17.90
2022-09-16T11:15:30.534Z,17.17
2022-09-16T11:18:19.125Z,16.59
2022-09-16T11:21:24.269Z,16.24
2022-09-16T11:24:25.527Z,15.90
2022-09-16T11:27:15.324Z,15.99
2022-09-16T11:30:04.354Z,15.80
2022-09-16T11:32:35.876Z,15.62
2022-09-16T11:35:17.435Z,15.77
2022-09-16T11:37:56.126Z,15.49
2022-09-16T11:40:39.009Z,14.98
2022-09-16T11:43:27.595Z,15.20
2022-09-16T11:46:19.181Z,15.46
2022-09-16T11:49:04.498Z,15.79
2022-09-16T11:51:56.478Z,15.78
2022-09-16T11:55:00.855Z,15.84
2022-09-16T11:57:35.470Z,16.18
2022-09-16T12:00:10.570Z,16.34
2022-09-16T12:02:46.644Z,16.55
2022-09-16T12:05:14.173Z,16.65
2022-09-16T12:08:09.698Z,16.91
2022-09-16T12:10:49.336Z,17.32
2022-09-16T12:13:37.267Z,17.80
2022-09-16T12:16:15.928Z,17.88
2022-09-16T12:18:57.882Z,17.90
2022-09-16T12:21:37.815Z,17.44
2022-09-16T12:24:16.382Z,16.84
2022-09-16T12:27:01.909Z,16.90
2022-09-16T12:29:59.250Z,17.11
2022-09-16T12:32:55.803Z,16.52
2022-09-16T12:35:44.609Z,16.80
2022-09-16T12:38:18.856Z,16.96
2022-09-16T12:41:41.613Z,17.19
2022-09-16T12:44:34.872Z,17.47
2022-09-16T12:47:38.918Z,17.27
2022-09-16T12:50:16.950Z,17.15
2022-09-16T12:53:07.433Z,17.13
2022-09-16T12:56:06.960Z,16.91
2022-09-16T12:58:49.406Z,17.00
2022-09-16T13:01:31.453Z,17.26
2022-09-16T13:04:08.910Z,17.46
2022-09-16T13:06:40.666Z,17.49
2022-09-16T13:09:22.559Z,17.30
2022-09-16T13:12:36.412Z,17.31
2022-09-16T13:14:54.974Z,17.44
2022-09-16T13:17:37.993Z,17.79
2022-09-16T13:20:30.055Z,17.71
2022-09-16T13:23:08.926Z,17.76
2022-09-16T13:25:59.153Z,17.73
2022-09-16T13:28:32.686Z,17.47
2022-09-16T13:31:28.460Z,17.49
2022-09-16T13:33:59.178Z,17.20
2022-09-16T13:36:27.033Z,17.37
2022-09-16T13:38:57.472Z,17.60
2022-09-16T13:41:41.914Z,17.51
2022-09-16T13:44:30.545Z,17.45
2022-09-16T13:47:34.068Z,17.38
2022-09-16T13:50:24.398Z,17.53
2022-09-16T13:52:53.103Z,17.68
2022-09-16T13:55:24.707Z,17.81
2022-09-16T13:58:00.222Z,17.97
2022-09-16T14:00:50.913Z,17.71
2022-09-16T14:03:47.557Z,17.25
2022-09-16T14:06:27.007Z,17.05
2022-09-16T14:09:00.372Z,16.85
2022-09-16T14:11:41.628Z,16.46
2022-09-16T14:14:36.106Z,15.99
2022-09-16T14:17:13.486Z,16.12
2022-09-16T14:19:42.668Z,16.45
2022-09-16T14:22:23.001Z,16.70
2022-09-16T14:25:00.565Z,16.75
2022-09-16T14:27:37.707Z,16.91
2022-09-16T14:30:17.898Z,16.98
2022-09-16T14:32:47.629Z,16.86
2022-09-16T14:35:24.809Z,16.83
2022-09-16T14:37:56.624Z,16.98
2022-09-16T14:40:27.463Z,17.06
2022-09-16T14:43:07.938Z,16.99
2022-09-16T14:45:37.529Z,17.10
2022-09-16T14:48:09.633Z,17.01
2022-09-16T14:50:40.018Z,17.05
2022-09-16T14:53:35.453Z,17.15
2022-09-16T14:56:04.623Z,16.90
2022-09-16T14:58:33.823Z,16.97
2022-09-16T15:01:10.605Z,17.07
2022-09-16T15:03:42.583Z,16.98
2022-09-16T15:06:16.344Z,16.92
2022-09-16T15:08:58.607Z,16.98
2022-09-16T15:11:47.687Z,16.88
2022-09-16T15:14:16.128Z,16.84
2022-09-16T15:16:49.575Z,16.79
2022-09-16T15:19:31.423Z,16.55
2022-09-16T15:21:59.611Z,16.43
2022-09-16T15:24:32.052Z,16.57
2022-09-16T15:27:01.611Z,16.53
2022-09-16T15:29:35.683Z,16.45
2022-09-16T15:32:19.851Z,16.31
2022-09-16T15:34:47.418Z,16.29
2022-09-16T15:37:31.156Z,15.71
2022-09-16T15:40:20.841Z,16.35
2022-09-16T15:43:00.675Z,16.43
2022-09-16T15:45:28.707Z,16.40
2022-09-16T15:48:02.725Z,16.44
2022-09-16T15:50:40.527Z,16.32
2022-09-16T15:53:14.125Z,16.22
2022-09-16T15:55:49.712Z,16.17
2022-09-16T15:58:32.759Z,16.24
2022-09-16T16:01:00.743Z,16.11
2022-09-16T16:03:32.283Z,16.06
2022-09-16T16:06:00.520Z,16.06
2022-09-16T16:08:52.025Z,16.05
2022-09-16T16:11:22.157Z,15.98
2022-09-16T16:13:53.138Z,15.88
2022-09-16T16:16:21.129Z,15.89
2022-09-16T16:18:48.609Z,15.78
2022-09-16T16:21:16.777Z,15.74
2022-09-16T16:23:44.632Z,15.60
2022-09-16T16:26:12.400Z,15.55
2022-09-16T16:28:39.813Z,15.50
2022-09-16T16:31:15.585Z,15.46
2022-09-16T16:33:47.774Z,15.43
2022-09-16T16:36:17.038Z,15.35
2022-09-16T16:38:45.570Z,15.28
2022-09-16T16:41:19.029Z,15.25
2022-09-16T16:43:46.442Z,15.25
2022-09-16T16:46:13.885Z,15.15
2022-09-16T16:48:41.333Z,15.14
2022-09-16T16:51:12.851Z,15.07
2022-09-16T16:53:40.745Z,15.09
2022-09-16T16:56:15.112Z,15.12
2022-09-16T16:58:43.499Z,15.02
2022-09-16T17:01:13.966Z,15.00
2022-09-16T17:03:43.164Z,15.01
2022-09-16T17:06:11.101Z,15.01
2022-09-16T17:08:38.982Z,14.94
2022-09-16T17:11:17.948Z,14.87
2022-09-16T17:13:49.263Z,14.75
2022-09-16T17:16:20.522Z,14.71
2022-09-16T17:18:48.510Z,14.65
2022-09-16T17:21:33.663Z,14.54
2022-09-16T17:24:01.297Z,14.51
2022-09-16T17:26:29.026Z,14.53
2022-09-16T17:29:01.239Z,14.49
2022-09-16T17:31:34.443Z,14.43
2022-09-16T17:34:05.464Z,14.42
2022-09-16T17:36:34.982Z,14.37
2022-09-16T17:39:08.061Z,14.29
2022-09-16T17:41:35.942Z,14.21
2022-09-16T17:44:08.194Z,14.15
2022-09-16T17:46:36.021Z,14.11
2022-09-16T17:49:08.674Z,14.07
2022-09-16T17:51:37.095Z,14.10
2022-09-16T17:54:04.881Z,14.05
2022-09-16T17:56:32.324Z,14.00
2022-09-16T17:58:59.941Z,13.95
2022-09-16T18:01:28.211Z,13.94
2022-09-16T18:03:59.814Z,13.82
2022-09-16T18:06:35.664Z,13.77
2022-09-16T18:09:05.328Z,13.71
2022-09-16T18:11:33.307Z,13.68
2022-09-16T18:14:02.863Z,13.67
2022-09-16T18:16:31.091Z,13.67
2022-09-16T18:19:00.601Z,13.58
2022-09-16T18:21:28.716Z,13.54
2022-09-16T18:23:58.820Z,13.52
2022-09-16T18:26:27.471Z,13.45
2022-09-16T18:29:18.006Z,13.47
2022-09-16T18:31:46.492Z,13.44
2022-09-16T18:34:15.893Z,13.41
2022-09-16T18:36:43.669Z,13.40
2022-09-16T18:39:14.617Z,13.35
2022-09-16T18:41:44.155Z,13.34
2022-09-16T18:44:17.483Z,13.36
2022-09-16T18:46:45.181Z,13.31
2022-09-16T18:49:14.775Z,13.32
2022-09-16T18:51:50.527Z,13.33
2022-09-16T18:54:27.874Z,13.34
2022-09-16T18:56:57.157Z,13.33
2022-09-16T18:59:28.265Z,13.31
2022-09-16T19:02:02.635Z,13.32
2022-09-16T19:04:32.927Z,13.30
2022-09-16T19:07:07.261Z,13.32
2022-09-16T19:09:37.423Z,13.32
2022-09-16T19:12:05.553Z,13.31
2022-09-16T19:14:33.024Z,13.28
2022-09-16T19:17:00.600Z,13.26
2022-09-16T19:19:27.989Z,13.27
2022-09-16T19:21:55.604Z,13.29
2022-09-16T19:24:24.487Z,13.32
2022-09-16T19:26:53.917Z,13.32
2022-09-16T19:29:21.823Z,13.31
2022-09-16T19:31:52.039Z,13.29
2022-09-16T19:34:20.171Z,13.25
2022-09-16T19:36:47.897Z,13.19
2022-09-16T19:39:15.424Z,13.19
2022-09-16T19:41:43.182Z,13.22
2022-09-16T19:44:14.237Z,13.22
2022-09-16T19:46:46.752Z,13.26
2022-09-16T19:49:17.350Z,13.36
2022-09-16T19:51:45.369Z,13.30
2022-09-16T19:54:13.557Z,13.28
2022-09-16T19:56:41.245Z,13.26
2022-09-16T19:59:09.140Z,13.25
2022-09-16T20:01:37.420Z,13.22
2022-09-16T20:04:07.640Z,13.25
2022-09-16T20:06:40.584Z,13.25
2022-09-16T20:09:13.772Z,12.48
2022-09-16T20:11:44.663Z,13.19
2022-09-16T20:14:19.019Z,13.19
2022-09-16T20:16:47.174Z,13.12
2022-09-16T20:19:17.053Z,13.09
2022-09-16T20:21:44.582Z,13.05
2022-09-16T20:24:18.455Z,13.09
2022-09-16T20:26:47.189Z,13.05
2022-09-16T20:29:17.356Z,13.00
2022-09-16T20:31:45.802Z,12.99
2022-09-16T20:34:16.063Z,13.01
2022-09-16T20:36:45.401Z,12.98
2022-09-16T20:39:13.354Z,12.97
2022-09-16T20:41:41.613Z,12.94
2022-09-16T20:44:15.900Z,12.96
2022-09-16T20:46:43.819Z,12.91
2022-09-16T20:49:15.825Z,12.91
2022-09-16T20:51:43.666Z,12.84
2022-09-16T20:54:13.799Z,12.82
2022-09-16T20:56:43.362Z,12.82
2022-09-16T20:59:13.392Z,12.85
2022-09-16T21:01:41.835Z,12.75
2022-09-16T21:04:13.804Z,12.76
2022-09-16T21:06:41.502Z,12.74
2022-09-16T21:09:12.664Z,12.75
2022-09-16T21:11:44.451Z,12.71
2022-09-16T21:14:15.184Z,12.65
2022-09-16T21:16:43.821Z,12.65
2022-09-16T21:19:13.320Z,12.68
2022-09-16T21:21:44.250Z,12.68
2022-09-16T21:24:12.101Z,12.66
2022-09-16T21:26:41.141Z,12.66
2022-09-16T21:29:20.815Z,12.63
2022-09-16T21:31:49.056Z,12.60
2022-09-16T21:34:19.467Z,12.61
2022-09-16T21:36:47.605Z,12.63
2022-09-16T21:39:16.818Z,12.62
2022-09-16T21:41:45.637Z,12.16
2022-09-16T21:44:13.954Z,12.58
2022-09-16T21:46:45.288Z,12.56
2022-09-16T21:49:22.340Z,12.56
2022-09-16T21:51:50.703Z,12.54
2022-09-16T21:54:20.341Z,12.60
2022-09-16T21:56:49.016Z,12.60
2022-09-16T21:59:17.307Z,12.54
2022-09-16T22:01:44.912Z,12.52
2022-09-16T22:04:17.775Z,12.51
2022-09-16T22:06:45.698Z,12.48
2022-09-16T22:09:13.332Z,12.49
2022-09-16T22:11:41.870Z,12.49
2022-09-16T22:14:11.122Z,12.43
2022-09-16T22:16:39.369Z,12.40
2022-09-16T22:19:16.024Z,12.38
2022-09-16T22:21:45.614Z,12.27
2022-09-16T22:24:13.603Z,12.28
2022-09-16T22:26:41.337Z,12.31
2022-09-16T22:29:10.850Z,12.28
2022-09-16T22:31:41.359Z,12.28
2022-09-16T22:34:09.694Z,12.24
2022-09-16T22:36:38.011Z,12.31
2022-09-16T22:39:10.721Z,12.22
2022-09-16T22:41:38.274Z,12.19
2022-09-16T22:44:05.715Z,12.17
2022-09-16T22:46:38.755Z,12.21
2022-09-16T22:49:06.090Z,12.13
2022-09-16T22:51:33.465Z,12.09
2022-09-16T22:54:00.809Z,12.05
2022-09-16T22:56:32.202Z,12.01
2022-09-16T22:59:01.950Z,11.98
2022-09-16T23:01:39.118Z,11.97
2022-09-16T23:04:08.451Z,11.97
2022-09-16T23:06:37.277Z,12.05
2022-09-16T23:09:06.671Z,12.01
2022-09-16T23:11:35.490Z,11.95
2022-09-16T23:14:04.112Z,11.93
2022-09-16T23:16:34.291Z,11.88
2022-09-16T23:19:05.597Z,11.88
2022-09-16T23:21:33.554Z,11.89
2022-09-16T23:24:04.335Z,11.87
2022-09-16T23:26:36.330Z,11.82
2022-09-16T23:29:06.576Z,11.76
2022-09-16T23:31:38.138Z,11.06
2022-09-16T23:34:07.876Z,11.80
2022-09-16T23:36:37.455Z,11.79
2022-09-16T23:39:08.241Z,11.75
2022-09-16T23:41:36.042Z,11.77
2022-09-16T23:44:03.418Z,11.80
2022-09-16T23:46:31.185Z,11.82
2022-09-16T23:48:59.414Z,11.79
2022-09-16T23:51:28.957Z,11.86
2022-09-16T23:53:57.318Z,11.88
2022-09-16T23:56:25.384Z,11.92
2022-09-16T23:58:52.964Z,11.90
